Latest Coastal Weather Observations for Orbost

IDV60701

Issued at 1:11 am EST Tuesday 23 May 2017 (issued every 10 minutes, with the page automatically refreshed every 10 minutes)

About coastal observations | Map of coastal stations | Coastal observations for VIC | Marine services | Other Formats
Station Details ID: 084145 Name: ORBOST Lat: -37.69 Lon: 148.47 Height: 62.65 m
Data from the previous 72 hours. | See also: Recent months at Orbost
Date/Time
EST
Temp
°C
Wind Pressure Rain since
9am
mm
Weather Cloud Vis
km
Sea
Height
m
Swell
Dir  Spd
kts
Gust
kts
hPa Trend Height
m
Period
s
Dir
23/01:00am 11.8 CALM 0 0 1018.0 - 0.0 - - - - - - -
23/12:30am 11.9 CALM 0 0 1018.4 - 0.0 - - - - - - -
23/12:00am 11.4 NW 1 2 1018.8 - 0.0 - - - - - - -
 
Date/Time
EST
Temp
°C
Wind Pressure Rain since
9am
mm
Weather Cloud Vis
km
Sea
Height
m
Swell
Dir  Spd
kts
Gust
kts
hPa Trend Height
m
Period
s
Dir
22/11:30pm 11.1 N 2 3 1018.9 - 0.0 - - - - - - -
22/11:00pm 11.1 CALM 0 0 1019.2 - 0.0 - - - - - - -
22/10:30pm 11.3 CALM 0 0 1019.5 - 0.0 - - - - - - -
22/10:00pm 11.0 NNE 1 2 1019.6 - 0.0 - - - - - - -
22/09:30pm 11.6 CALM 0 0 1019.6 - 0.0 - - - - - - -
22/09:00pm 11.9 CALM 0 2 1019.6 - 0.0 - - - - - - -
22/08:30pm 11.9 N 4 4 1019.7 - 0.0 - - - - - - -
22/08:00pm 12.1 N 2 3 1019.7 - 0.0 - - - - - - -
22/07:30pm 12.3 NNW 2 3 1019.7 - 0.0 - - - - - - -
22/07:00pm 13.1 CALM 0 2 1019.4 - 0.0 - - - - - - -
22/06:30pm 14.3 ENE 2 4 1019.2 - 0.0 - - - - - - -
22/06:00pm 14.7 ENE 3 4 1019.1 - 0.0 - - - - - - -
22/05:30pm 14.6 E 2 3 1019.1 - 0.0 - - - - - - -
22/05:00pm 15.5 ESE 3 4 1019.1 - 0.0 - - - - - - -
22/04:30pm 16.9 ESE 3 5 1019.5 - 0.0 - - - - - - -
22/04:00pm 18.1 SE 4 6 1019.7 - 0.0 - - - - - - -
22/03:30pm 18.6 SE 3 5 1019.8 - 0.0 - - - - - - -
22/03:00pm 19.0 SSE 3 6 1019.9 - 0.0 - - - - - - -
22/02:30pm 19.3 SSE 4 6 1020.1 - 0.0 - - - - - - -
22/02:00pm 19.4 SE 3 4 1020.4 - 0.0 - - - - - - -
22/01:30pm 20.1 N 1 2 1020.5 - 0.0 - - - - - - -
22/01:00pm 19.3 S 2 3 1020.9 - 0.0 - - - - - - -
22/12:30pm 18.8 WNW 1 3 1021.2 - 0.0 - - - - - - -
22/12:00pm 18.4 W 2 4 1021.7 - 0.0 - - - - - - -
22/11:30am 17.6 WSW 2 4 1022.1 - 0.0 - - - - - - -
22/11:00am 18.3 NE 3 5 1022.5 - 0.0 - - - - - - -
22/10:30am 16.1 CALM 0 0 1022.9 - 0.0 - - - - - - -
22/10:00am 14.8 CALM 0 0 1023.3 - 0.0 - - - - - - -
22/09:30am 13.5 CALM 0 0 1023.5 - 0.0 - - - - - - -
22/09:00am 12.9 CALM 0 0 1023.7 - 0.0 - - - - - - -
22/08:30am 12.5 CALM 0 0 1023.6 - 0.0 - - - - - - -
22/08:00am 10.4 NNW 1 3 1023.5 - 0.0 - - - - - - -
22/07:30am 9.3 N 2 4 1023.4 - 0.0 - - - - - - -
22/07:00am 9.5 N 3 4 1023.2 - 0.0 - - - - - - -
22/06:30am 9.3 NNW 2 3 1022.9 - 0.0 - - - - - - -
22/06:00am 9.7 N 2 3 1022.7 - 0.0 - - - - - - -
22/05:30am 9.7 N 3 3 1022.5 - 0.0 - - - - - - -
22/05:00am 9.7 N 1 2 1022.2 - 0.0 - - - - - - -
22/04:30am 10.1 N 2 2 1022.1 - 0.0 - - - - - - -
22/04:00am 9.7 CALM 0 0 1022.1 - 0.0 - - - - - - -
22/03:30am 9.7 CALM 0 0 1022.1 - 0.0 - - - - - - -
22/03:00am 9.7 CALM 0 0 1022.1 - 0.0 - - - - - - -
22/02:30am 10.2 CALM 0 1 1022.0 - 0.0 - - - - - - -
22/02:00am 10.2 N 1 3 1021.9 - 0.0 - - - - - - -
22/01:30am 10.4 CALM 0 0 1022.0 - 0.0 - - - - - - -
22/01:00am 9.9 CALM 0 0 1022.0 - 0.0 - - - - - - -
22/12:30am 10.6 CALM 0 0 1022.1 - 0.0 - - - - - - -
22/12:00am 10.5 CALM 0 0 1022.2 - 0.0 - - - - - - -
 
Date/Time
EST
Temp
°C
Wind Pressure Rain since
9am
mm
Weather Cloud Vis
km
Sea
Height
m
Swell
Dir  Spd
kts
Gust
kts
hPa Trend Height
m
Period
s
Dir
21/11:30pm 11.0 CALM 0 0 1022.2 - 0.0 - - - - - - -
21/11:00pm 10.2 CALM 0 0 1022.1 - 0.0 - - - - - - -
21/10:30pm 10.6 CALM 0 2 1022.1 - 0.0 - - - - - - -
21/10:00pm 11.2 N 2 3 1022.0 - 0.0 - - - - - - -
21/09:30pm 10.6 N 2 3 1022.2 - 0.0 - - - - - - -
21/09:00pm 10.6 N 2 3 1022.0 - 0.0 - - - - - - -
21/08:30pm 10.8 CALM 0 0 1021.7 - 0.0 - - - - - - -
21/08:00pm 11.6 NE 2 3 1021.4 - 0.0 - - - - - - -
21/07:30pm 12.1 CALM 0 0 1021.2 - 0.0 - - - - - - -
21/07:00pm 12.5 NE 4 5 1020.9 - 0.0 - - - - - - -
21/06:30pm 12.1 ENE 2 3 1020.7 - 0.0 - - - - - - -
21/06:00pm 13.4 E 2 2 1020.3 - 0.0 - - - - - - -
21/05:30pm 13.2 E 2 2 1020.1 - 0.0 - - - - - - -
21/05:00pm 14.5 ESE 2 2 1019.8 - 0.0 - - - - - - -
21/04:30pm 17.3 ESE 1 2 1019.7 - 0.0 - - - - - - -
21/04:00pm 18.1 SE 2 3 1019.5 - 0.0 - - - - - - -
21/03:30pm 19.1 SSW 2 4 1019.2 - 0.0 - - - - - - -
21/03:00pm 19.8 NNW 1 3 1019.1 - 0.0 - - - - - - -
21/02:30pm 20.0 W 2 5 1019.1 - 0.0 - - - - - - -
21/02:00pm 19.7 NW 3 7 1019.0 - 0.0 - - - - - - -
21/01:30pm 19.7 WNW 3 5 1019.0 - 0.0 - - - - - - -
21/01:00pm 19.3 NW 3 6 1019.0 - 0.0 - - - - - - -
21/12:30pm 18.9 NW 4 5 1019.3 - 0.0 - - - - - - -
21/12:00pm 18.5 NW 5 7 1019.8 - 0.0 - - - - - - -
21/11:30am 18.3 NNW 5 7 1020.3 - 0.0 - - - - - - -
21/11:00am 17.8 NW 3 5 1020.7 - 0.0 - - - - - - -
21/10:30am 16.6 W 2 3 1020.9 - 0.0 - - - - - - -
21/10:00am 15.8 WNW 2 3 1020.9 - 0.0 - - - - - - -
21/09:30am 15.1 NNW 2 4 1020.8 - 0.0 - - - - - - -
21/09:00am 13.4 NW 1 3 1020.7 - 0.2 - - - - - - -
21/08:30am 11.2 CALM 0 0 1020.5 - 0.2 - - - - - - -
21/08:00am 10.5 CALM 0 0 1020.2 - 0.2 - - - - - - -
21/07:30am 10.6 NNW 1 2 1019.9 - 0.2 - - - - - - -
21/07:00am 9.7 NNW 3 5 1019.7 - 0.2 - - - - - - -
21/06:30am 9.3 NW 2 5 1019.3 - 0.2 - - - - - - -
21/06:00am 10.1 NW 1 2 1019.1 - 0.2 - - - - - - -
21/05:30am 9.9 NNW 3 5 1019.0 - 0.2 - - - - - - -
21/05:00am 10.6 NNW 3 3 1018.8 - 0.2 - - - - - - -
21/04:30am 10.8 CALM 0 1 1018.7 - 0.2 - - - - - - -
21/04:00am 10.5 NNW 3 4 1018.6 - 0.2 - - - - - - -
21/03:30am 11.1 NW 2 4 1018.6 - 0.2 - - - - - - -
21/03:00am 12.2 N 4 5 1018.5 - 0.2 - - - - - - -
21/02:30am 12.2 NNW 2 3 1018.7 - 0.2 - - - - - - -
21/02:00am 12.2 NW 3 4 1018.7 - 0.2 - - - - - - -
21/01:30am 13.2 NNW 2 3 1018.6 - 0.2 - - - - - - -
21/01:00am 13.2 N 2 3 1018.7 - 0.2 - - - - - - -
21/12:30am 12.7 NNW 3 4 1018.7 - 0.2 - - - - - - -
21/12:00am 14.1 N 3 4 1018.6 - 0.2 - - - - - - -
 
Date/Time
EST
Temp
°C
Wind Pressure Rain since
9am
mm
Weather Cloud Vis
km
Sea
Height
m
Swell
Dir  Spd
kts
Gust
kts
hPa Trend Height
m
Period
s
Dir
20/11:30pm 14.1 N 4 5 1018.4 - 0.2 - - - - - - -
20/11:00pm 13.5 NNW 3 4 1018.4 - 0.2 - - - - - - -
20/10:30pm 13.4 NW 2 3 1018.3 - 0.2 - - - - - - -
20/10:00pm 13.9 NW 2 4 1018.4 - 0.2 - - - - - - -
20/09:30pm 14.7 NNW 3 3 1018.4 - 0.2 - - - - - - -
20/09:00pm 14.0 N 3 3 1018.2 - 0.2 - - - - - - -
20/08:30pm 14.1 N 3 3 1017.9 - 0.2 - - - - - - -
20/08:00pm 14.6 NNW 2 3 1017.8 - 0.2 - - - - - - -
20/07:30pm 13.4 NE 1 2 1017.6 - 0.2 - - - - - - -
20/07:00pm 14.3 NNW 2 3 1017.3 - 0.2 - - - - - - -
20/06:30pm 14.2 N 3 3 1016.9 - 0.2 - - - - - - -
20/06:00pm 13.9 N 3 3 1016.6 - 0.2 - - - - - - -
20/05:30pm 14.5 E 2 3 1016.4 - 0.2 - - - - - - -
20/05:00pm 15.8 ESE 2 3 1016.2 - 0.2 - - - - - - -
20/04:30pm 17.1 ESE 2 4 1016.0 - 0.2 - - - - - - -
20/04:00pm 18.8 SW 4 6 1015.6 - 0.2 - - - - - - -
20/03:30pm 19.1 SSE 2 3 1015.4 - 0.2 - - - - - - -
20/03:00pm 19.6 SW 3 5 1015.4 - 0.2 - - - - - - -
20/02:30pm 19.2 S 2 4 1015.2 - 0.2 - - - - - - -
20/02:00pm 19.9 SW 1 5 1015.2 - 0.2 - - - - - - -
20/01:30pm 19.7 WSW 3 5 1015.4 - 0.2 - - - - - - -
20/01:00pm 19.5 SW 3 5 1015.5 - 0.2 - - - - - - -
20/12:30pm 19.5 NW 1 5 1015.7 - 0.2 - - - - - - -
20/12:00pm 19.0 SSE 2 3 1016.2 - 0.2 - - - - - - -
20/11:30am 18.8 E 1 2 1016.7 - 0.2 - - - - - - -
20/11:00am 17.2 SE 2 4 1017.2 - 0.2 - - - - - - -
20/10:30am 16.5 ESE 3 5 1017.7 - 0.2 - - - - - - -
20/10:00am 15.7 SE 2 3 1017.9 - 0.2 - - - - - - -
20/09:30am 14.5 E 3 4 1017.6 - 0.0 - - - - - - -
20/09:00am 13.9 CALM 0 0 1017.4 - 18.0 - - - - - - -
20/08:30am 13.5 NE 1 2 1017.3 - 18.0 - - - - - - -
20/08:00am 13.4 CALM 0 0 1016.9 - 18.0 - - - - - - -
20/07:30am 13.3 CALM 0 2 1016.6 - 18.0 - - - - - - -
20/07:00am 13.6 NE 2 4 1016.8 - 18.0 - - - - - - -
20/06:30am 13.8 NW 4 5 1016.6 - 18.0 - - - - - - -
20/06:00am 14.1 NNE 3 7 1016.2 - 18.0 Rain - - - - - -
20/05:30am 14.0 NE 3 5 1016.8 - 17.6 - - - - - - -
20/05:00am 13.8 E 4 5 1017.2 - 17.0 - - - - - - -
20/04:30am 13.8 NE 2 4 1017.6 - 15.8 - - - - - - -
20/04:00am 13.4 ENE 2 3 1017.1 - 14.8 - - - - - - -
20/03:30am 13.5 ENE 2 3 1016.9 - 14.8 - - - - - - -
20/03:00am 13.6 SE 2 3 1017.1 - 14.8 Recent precip. - - - - - -
20/02:30am 13.5 NNW 2 4 1018.0 - 14.6 - - - - - - -
20/02:00am 13.8 CALM 0 0 1017.7 - 14.6 - - - - - - -
20/01:30am 14.0 E 1 1 1018.1 - 14.6 - - - - - - -

Other Formats:

Comma delimited format used in spreadsheet applications
http://www.bom.gov.au/fwo/IDV60701/IDV60701.95918.axf

JavaScript Object Notation format (JSON) in row-major order
http://www.bom.gov.au/fwo/IDV60701/IDV60701.95918.json